Startpagina
METAR-TAF:

METAR-TAF

Vliegvelden :

Aéroport de Paris-Beauvais-Tillé

Beauvais, Frankrijk

breedte: 49-28N, lengte: 002-07E, hoogte: 109 m

Actueel weer

Dit bericht is 35 minuten geleden gemaakt, om 06:00 UTC
Wind 2 kt uit variabele richting
Temperatuur 3°C
Vochtigheid 93%
Druk 1021 hPa
Zicht: 6000 m

METAR: LFOB 180600Z AUTO VRB02KT 6000 NSC 03/02 Q1021 TEMPO 0500 BCFG

Tijdstip: 08:35 (06:35 UTC)

Verwachting

Dit bericht is 1 uur en het 35 minuten geleden gemaakt, om 05:00 UTC
Verwachting geldig van 18 om 06 UTC tot 19 om 06 UTC
Wind 3 kt uit variabele richting
Zicht 10 km of meer
geen wolken onder 1500 m en geen cumulonimbus
Kans 40%
van 18 om 06 UTC tot 18 om 07 UTC
Zicht: 0500 m
mistbanken
Wijzigt naar
van 18 om 10 UTC tot 18 om 12 UTC
Wind 10 kt uit het zuiden
Tijdelijke
van 18 om 18 UTC tot 19 om 06 UTC
Zicht: 4000 m
Verspreide wolken op 800 ft
Geheel bewolkt op 1300 ft
regen

TAF: LFOB 180500Z 1806/1906 VRB03KT CAVOK PROB40 1806/1807 0500 BCFG BECMG 1810/1812 18010KT TEMPO 1818/1906 4000 RA SCT008 OVC013

Waarnemingen en weersverwachtingen van meer dan 4000 vliegvelden (METAR en TAF).

De beschikbare stations zijn de gele en rode punten op de kaart.

Ga met uw muis naar het station om de naam te zien.

Klik dan om waarnemingen en weersverwachtingen te zien.

kaart wijzigen: klik op de groene knoppen met een zwart kruis om in te zoomen, op de groene knop met een streepje om uit te zoomen of op de groene pijlen voor aangrenzende kaarten.


METAR-TAF: